Time;durP1;ratioP1;P1;durP2;ratioP2;P2;SDS_P1;SDS_P2;PMS_P1;PMS_P2;Temp;Humidity;BMP_temperature;BMP_pressure;BME280_temperature;BME280_humidity;BME280_pressure;Samples;Min_cycle;Max_cycle;Signal;HPM_P1;HPM_P2
2022/06/29 00:03:27;;;;;;;3.25;2.78;;;25.30;99.90;;;;;;12981525;22;20189;-83
2022/06/29 00:08:29;;;;;;;2.53;2.33;;;25.30;99.90;;;;;;12981649;22;20162;-83
2022/06/29 00:13:32;;;;;;;3.40;2.60;;;25.30;99.90;;;;;;12981665;22;20512;-83
2022/06/29 00:18:35;;;;;;;2.33;2.15;;;25.30;99.90;;;;;;12980055;22;20692;-83
2022/06/29 00:23:37;;;;;;;2.97;2.67;;;25.30;99.90;;;;;;12979471;22;20201;-83
2022/06/29 00:28:40;;;;;;;3.83;2.63;;;25.20;99.90;;;;;;12981372;22;20234;-81
2022/06/29 00:33:42;;;;;;;2.83;2.63;;;25.20;99.90;;;;;;12953922;22;20227;-81
2022/06/29 00:38:45;;;;;;;2.70;2.50;;;25.20;99.90;;;;;;12980937;22;20169;-81
2022/06/29 00:43:47;;;;;;;2.65;2.45;;;25.20;99.90;;;;;;12953231;22;20243;-81
2022/06/29 00:48:50;;;;;;;5.03;3.08;;;25.10;99.90;;;;;;12998398;22;20185;-81
2022/06/29 00:53:56;;;;;;;2.65;2.45;;;25.10;99.90;;;;;;12980439;22;20192;-81
2022/06/29 00:59:03;;;;;;;3.15;2.50;;;25.10;99.90;;;;;;12995385;22;20173;-81
2022/06/29 01:04:06;;;;;;;3.95;2.40;;;25.10;99.90;;;;;;12999450;22;20567;-82
2022/06/29 01:09:09;;;;;;;3.83;2.78;;;25.10;99.90;;;;;;12984409;22;20162;-82
2022/06/29 01:14:15;;;;;;;2.63;2.42;;;25.00;99.90;;;;;;12984977;22;20235;-82
2022/06/29 01:19:18;;;;;;;2.53;2.33;;;25.00;99.90;;;;;;12984218;22;20276;-82
2022/06/29 01:24:22;;;;;;;2.90;2.50;;;25.00;99.90;;;;;;12984612;22;20255;-82
2022/06/29 01:29:24;;;;;;;2.58;2.38;;;25.00;99.90;;;;;;12983696;22;20165;-82
2022/06/29 01:34:30;;;;;;;2.72;2.53;;;25.00;99.90;;;;;;12984408;22;20166;-82
2022/06/29 01:39:33;;;;;;;3.00;2.70;;;25.00;99.90;;;;;;12984190;22;20219;-82
2022/06/29 01:44:37;;;;;;;2.78;2.58;;;25.00;99.90;;;;;;12994821;22;20653;-82
2022/06/29 01:49:39;;;;;;;2.53;2.33;;;25.00;99.90;;;;;;13002395;22;20166;-82
2022/06/29 01:54:43;;;;;;;2.65;2.45;;;25.00;99.90;;;;;;12982905;22;20166;-82
2022/06/29 01:59:45;;;;;;;2.63;2.42;;;24.90;99.90;;;;;;12982193;22;20173;-82
2022/06/29 02:04:48;;;;;;;3.28;2.97;;;24.90;99.90;;;;;;12983552;22;20251;-82
2022/06/29 02:09:50;;;;;;;3.50;2.63;;;24.80;99.90;;;;;;12984057;22;20165;-82
2022/06/29 02:14:53;;;;;;;2.22;2.03;;;24.80;99.90;;;;;;12983348;22;20170;-82
2022/06/29 02:19:55;;;;;;;3.17;2.88;;;24.80;99.90;;;;;;12980762;22;20181;-82
2022/06/29 02:24:58;;;;;;;4.22;2.70;;;24.90;99.90;;;;;;12983445;22;20189;-82
2022/06/29 02:30:00;;;;;;;2.85;2.65;;;24.80;99.90;;;;;;12981117;22;20227;-82
2022/06/29 02:35:03;;;;;;;3.03;2.78;;;24.80;99.90;;;;;;12982471;22;20170;-83
2022/06/29 02:40:06;;;;;;;2.60;2.40;;;24.80;99.90;;;;;;13000226;22;20170;-82
2022/06/29 02:45:09;;;;;;;3.30;2.30;;;24.80;99.90;;;;;;12982601;22;20247;-82
2022/06/29 02:50:11;;;;;;;2.33;2.13;;;24.80;99.90;;;;;;12982316;22;20166;-82
2022/06/29 02:55:15;;;;;;;3.50;2.67;;;24.80;99.90;;;;;;13000816;22;20170;-82
2022/06/29 03:00:17;;;;;;;2.67;2.42;;;24.80;99.90;;;;;;12982677;22;20555;-83
2022/06/29 03:05:20;;;;;;;2.90;2.70;;;24.80;99.90;;;;;;12980204;22;20244;-82
2022/06/29 03:10:23;;;;;;;2.67;2.47;;;24.80;99.90;;;;;;12980609;22;20166;-83
2022/06/29 03:15:25;;;;;;;2.15;2.05;;;24.80;99.90;;;;;;12982572;22;20508;-83
2022/06/29 03:20:28;;;;;;;2.35;2.15;;;24.70;99.90;;;;;;12980406;22;20575;-82
2022/06/29 03:25:31;;;;;;;2.72;2.53;;;24.70;99.90;;;;;;12985005;22;20609;-82
2022/06/29 03:30:33;;;;;;;2.92;2.40;;;24.70;99.90;;;;;;12981819;22;20166;-82
2022/06/29 03:35:36;;;;;;;2.97;2.65;;;24.70;99.90;;;;;;12978561;22;20170;-82
2022/06/29 03:40:38;;;;;;;5.38;2.45;;;24.80;99.90;;;;;;12980518;22;20509;-82
2022/06/29 03:45:41;;;;;;;2.80;2.60;;;24.80;99.90;;;;;;12979519;22;20178;-82
2022/06/29 03:50:44;;;;;;;2.88;2.67;;;24.90;99.90;;;;;;12978343;22;20177;-83
2022/06/29 03:55:47;;;;;;;2.90;2.70;;;24.90;99.90;;;;;;12999448;22;20548;-82
2022/06/29 04:00:49;;;;;;;2.95;2.65;;;25.00;99.90;;;;;;12981059;22;20204;-82
2022/06/29 04:05:52;;;;;;;4.18;2.55;;;25.00;99.90;;;;;;12978225;22;20247;-82
2022/06/29 04:10:54;;;;;;;2.90;2.70;;;25.00;99.90;;;;;;12980970;22;20509;-82
2022/06/29 04:15:57;;;;;;;3.13;2.92;;;25.00;99.90;;;;;;12980899;22;20224;-83
2022/06/29 04:21:08;;;;;;;2.92;2.20;;;24.90;99.90;;;;;;12980843;22;20512;-82
2022/06/29 04:26:11;;;;;;;3.28;2.83;;;24.90;99.90;;;;;;12978259;22;20816;-82
2022/06/29 04:31:13;;;;;;;2.67;2.47;;;24.90;99.90;;;;;;12980229;22;20540;-82
2022/06/29 04:36:16;;;;;;;2.30;2.20;;;25.00;99.90;;;;;;12980698;22;20268;-82
2022/06/29 04:41:19;;;;;;;2.95;2.45;;;25.10;99.90;;;;;;12982266;22;20547;-82
2022/06/29 04:46:24;;;;;;;4.70;3.03;;;25.00;99.90;;;;;;12982711;22;20223;-83
2022/06/29 04:51:30;;;;;;;2.38;2.17;;;25.00;99.90;;;;;;12983305;22;20334;-82
2022/06/29 04:56:35;;;;;;;2.40;2.20;;;24.90;99.90;;;;;;13002707;22;20204;-82
2022/06/29 05:01:37;;;;;;;2.20;2.00;;;24.90;99.90;;;;;;12982511;22;20208;-82
2022/06/29 05:06:40;;;;;;;2.47;2.28;;;25.00;99.90;;;;;;12983746;22;20591;-82
2022/06/29 05:11:43;;;;;;;2.17;2.08;;;24.90;99.90;;;;;;12984261;22;20166;-82
2022/06/29 05:16:45;;;;;;;2.65;2.45;;;24.90;99.90;;;;;;12984063;22;20173;-82
2022/06/29 05:21:48;;;;;;;3.15;2.72;;;25.00;99.90;;;;;;12984287;22;20169;-82
2022/06/29 05:26:50;;;;;;;2.42;2.20;;;25.00;99.90;;;;;;12980294;22;20201;-82
2022/06/29 05:31:53;;;;;;;3.97;3.47;;;25.20;99.90;;;;;;12983375;22;20170;-82
2022/06/29 05:36:55;;;;;;;2.40;2.25;;;25.30;99.90;;;;;;12983313;22;20170;-82
2022/06/29 05:41:58;;;;;;;2.95;2.65;;;25.40;99.90;;;;;;12982935;22;20196;-82
2022/06/29 05:47:01;;;;;;;2.75;2.33;;;25.30;99.90;;;;;;12980270;22;20190;-81
2022/06/29 05:52:04;;;;;;;2.50;2.30;;;25.40;99.90;;;;;;12983150;22;20892;-82
2022/06/29 05:57:06;;;;;;;2.40;2.20;;;25.40;99.90;;;;;;12979383;22;20170;-81
2022/06/29 06:02:09;;;;;;;2.53;2.30;;;25.50;99.90;;;;;;12977833;22;20568;-81
2022/06/29 06:07:12;;;;;;;2.65;2.45;;;25.50;99.90;;;;;;12980387;22;20528;-82
2022/06/29 06:12:14;;;;;;;3.08;2.78;;;25.50;99.90;;;;;;12981580;22;20220;-82
2022/06/29 06:17:17;;;;;;;2.75;2.55;;;25.60;99.90;;;;;;12979819;22;20200;-82
2022/06/29 06:22:20;;;;;;;3.05;2.72;;;25.60;99.90;;;;;;12998862;22;20220;-82
2022/06/29 06:27:22;;;;;;;3.22;2.92;;;25.70;99.90;;;;;;12978430;22;20235;-81
2022/06/29 06:32:25;;;;;;;2.90;2.70;;;25.70;99.90;;;;;;12981216;22;20192;-82
2022/06/29 06:37:28;;;;;;;4.88;2.22;;;25.60;99.90;;;;;;13000173;22;20235;-82
2022/06/29 06:42:31;;;;;;;2.42;2.22;;;25.40;99.90;;;;;;12981271;22;20236;-82
2022/06/29 06:47:37;;;;;;;2.47;2.28;;;25.60;99.90;;;;;;12983066;22;20521;-82
2022/06/29 06:52:39;;;;;;;2.70;2.50;;;25.70;99.90;;;;;;12982005;22;20158;-82
2022/06/29 06:57:42;;;;;;;2.10;2.00;;;25.80;99.90;;;;;;12978249;22;20177;-82
2022/06/29 07:02:44;;;;;;;2.17;2.03;;;25.80;99.90;;;;;;12980309;22;20566;-81
2022/06/29 07:07:47;;;;;;;2.95;2.50;;;25.80;99.90;;;;;;12996001;22;20189;-82
2022/06/29 07:12:50;;;;;;;3.22;2.92;;;25.60;99.90;;;;;;12978268;22;20173;-83
2022/06/29 07:17:58;;;;;;;2.80;2.60;;;25.60;99.90;;;;;;12982561;22;20227;-82
2022/06/29 07:23:00;;;;;;;2.83;2.30;;;25.50;99.90;;;;;;12981517;22;20259;-83
2022/06/29 07:28:03;;;;;;;2.75;2.55;;;25.50;99.90;;;;;;12980516;22;20189;-83
2022/06/29 07:33:05;;;;;;;2.67;2.47;;;25.40;99.90;;;;;;12996898;22;20493;-83
2022/06/29 07:38:10;;;;;;;3.05;2.70;;;25.50;99.90;;;;;;12980470;22;20169;-82
2022/06/29 07:43:12;;;;;;;4.30;2.78;;;25.50;99.90;;;;;;12980951;22;20810;-81
2022/06/29 07:48:15;;;;;;;2.80;2.60;;;25.60;99.90;;;;;;12995901;22;20575;-82
2022/06/29 07:53:18;;;;;;;2.67;2.47;;;25.60;99.90;;;;;;12952003;22;20181;-82
2022/06/29 07:58:21;;;;;;;2.90;2.70;;;25.70;99.90;;;;;;12980267;22;20482;-82
2022/06/29 08:03:23;;;;;;;2.70;2.50;;;25.60;99.90;;;;;;12978318;22;20165;-82
2022/06/29 08:08:26;;;;;;;3.03;2.83;;;25.70;99.90;;;;;;12979934;22;20189;-82
2022/06/29 08:13:29;;;;;;;2.45;2.25;;;25.70;99.90;;;;;;12980143;22;20169;-81
2022/06/29 08:18:31;;;;;;;4.10;2.63;;;25.60;99.90;;;;;;12984876;22;20203;-82
2022/06/29 08:23:34;;;;;;;2.58;2.38;;;25.70;99.90;;;;;;12981367;22;20197;-81
2022/06/29 08:28:37;;;;;;;2.65;2.45;;;25.80;99.90;;;;;;12982166;22;20189;-82
2022/06/29 08:33:39;;;;;;;2.72;2.53;;;25.90;99.90;;;;;;12981052;22;20174;-82
2022/06/29 08:38:42;;;;;;;2.78;2.58;;;25.90;99.90;;;;;;12983673;22;20166;-82
2022/06/29 08:43:45;;;;;;;2.53;2.33;;;25.90;99.90;;;;;;12983133;22;20170;-82
2022/06/29 08:48:48;;;;;;;2.55;2.35;;;25.80;99.90;;;;;;12983629;22;20190;-82
2022/06/29 08:53:51;;;;;;;2.72;2.53;;;25.80;99.90;;;;;;12981165;22;20542;-82
2022/06/29 08:58:55;;;;;;;2.45;2.28;;;25.80;99.90;;;;;;12980879;22;20235;-82
2022/06/29 09:10:02;;;;;;;2.35;2.25;;;25.70;99.90;;;;;;12727922;22;20358;-91
2022/06/29 09:15:09;;;;;;;2.53;2.33;;;25.80;99.90;;;;;;13016209;22;20278;-91
2022/06/29 09:20:13;;;;;;;2.25;2.05;;;25.80;99.90;;;;;;12965381;22;20173;-90
2022/06/29 09:25:39;;;;;;;2.50;2.30;;;25.90;99.90;;;;;;12970936;22;20193;-90
2022/06/29 09:30:42;;;;;;;2.70;2.50;;;25.90;99.90;;;;;;12966075;22;20199;-91
2022/06/29 09:36:02;;;;;;;2.70;2.50;;;26.00;99.90;;;;;;13014506;22;20604;-90
2022/06/29 09:41:12;;;;;;;2.72;2.53;;;26.10;99.90;;;;;;12989380;22;20207;-91
2022/06/29 09:46:17;;;;;;;2.50;2.30;;;26.10;99.90;;;;;;12991969;22;20484;-91
2022/06/29 09:51:30;;;;;;;2.60;2.40;;;26.30;99.90;;;;;;13015936;22;20242;-91
2022/06/29 09:56:35;;;;;;;2.50;2.30;;;26.30;99.90;;;;;;12991506;22;20173;-91
2022/06/29 10:07:03;;;;;;;2.78;2.58;;;26.10;99.90;;;;;;13015744;22;20258;-90
2022/06/29 10:18:27;;;;;;;2.75;2.55;;;26.20;99.90;;;;;;13043255;22;20173;-90
2022/06/29 10:23:54;;;;;;;2.90;2.60;;;26.30;99.90;;;;;;12943140;22;20238;-90
2022/06/29 10:29:17;;;;;;;2.72;2.45;;;26.40;99.90;;;;;;12978729;22;20226;-91
2022/06/29 10:34:30;;;;;;;2.88;2.67;;;26.50;99.90;;;;;;13042957;22;20165;-91
2022/06/29 10:39:49;;;;;;;2.80;2.60;;;26.20;99.90;;;;;;13023193;22;20538;-91
2022/06/29 10:44:59;;;;;;;2.67;2.47;;;26.10;99.90;;;;;;13015744;22;20202;-90
2022/06/29 10:50:23;;;;;;;2.70;2.50;;;26.10;99.90;;;;;;13015039;22;20192;-91
2022/06/29 10:55:30;;;;;;;2.67;2.47;;;26.20;99.90;;;;;;13016103;22;20181;-91
2022/06/29 11:00:39;;;;;;;3.05;2.17;;;26.30;99.90;;;;;;12989052;22;20173;-90
2022/06/29 11:16:36;;;;;;;2.25;2.05;;;26.00;99.90;;;;;;13059161;22;20165;-92
2022/06/29 11:21:40;;;;;;;2.75;2.53;;;26.10;99.90;;;;;;13012367;22;20169;-89
2022/06/29 11:26:43;;;;;;;3.10;2.85;;;26.20;99.90;;;;;;12987048;22;20189;-90
2022/06/29 11:32:01;;;;;;;1.95;1.70;;;26.10;99.90;;;;;;12992332;22;20181;-90
2022/06/29 11:37:04;;;;;;;3.95;2.10;;;25.60;99.90;;;;;;12988650;22;20229;-90
2022/06/29 11:47:29;;;;;;;3.58;2.22;;;24.80;99.90;;;;;;13016136;22;20511;-92
2022/06/29 11:52:34;;;;;;;2.05;1.85;;;25.30;99.90;;;;;;13014102;22;20181;-90
2022/06/29 11:57:37;;;;;;;3.28;2.50;;;25.00;99.90;;;;;;13058904;22;20169;-90
2022/06/29 12:02:40;;;;;;;3.15;2.95;;;25.30;99.90;;;;;;12990069;22;20173;-89
2022/06/29 12:07:48;;;;;;;3.30;3.00;;;25.50;99.90;;;;;;13035063;22;20204;-90
2022/06/29 12:12:54;;;;;;;2.60;2.40;;;25.70;99.90;;;;;;12993158;22;20635;-89
2022/06/29 12:18:01;;;;;;;4.00;2.58;;;25.70;99.90;;;;;;13066874;22;20191;-89
2022/06/29 12:23:12;;;;;;;2.75;2.55;;;25.80;99.40;;;;;;12992708;22;20230;-90
2022/06/29 12:28:17;;;;;;;3.53;2.60;;;25.90;99.90;;;;;;13025052;22;20201;-89
2022/06/29 12:33:21;;;;;;;2.60;2.38;;;25.90;99.90;;;;;;13017078;22;20247;-90
2022/06/29 12:38:24;;;;;;;2.17;1.98;;;25.90;99.90;;;;;;12992351;22;20246;-89
2022/06/29 12:43:27;;;;;;;2.85;2.55;;;26.00;99.90;;;;;;12994081;22;20673;-89
2022/06/29 12:48:30;;;;;;;3.08;2.78;;;26.00;99.80;;;;;;13016214;22;20226;-89
2022/06/29 12:53:32;;;;;;;2.80;2.60;;;26.00;99.90;;;;;;13017290;22;20181;-90
2022/06/29 12:58:35;;;;;;;2.65;2.45;;;26.10;99.90;;;;;;12992665;22;20169;-90
2022/06/29 13:03:38;;;;;;;2.88;2.67;;;26.10;99.90;;;;;;13020472;22;20199;-90
2022/06/29 13:08:41;;;;;;;3.08;2.88;;;26.10;99.90;;;;;;13021014;22;20281;-90
2022/06/29 13:13:44;;;;;;;2.17;2.08;;;26.00;99.90;;;;;;13047335;22;20169;-90
2022/06/29 13:18:47;;;;;;;3.83;2.60;;;26.10;99.90;;;;;;13021417;22;20534;-89
2022/06/29 13:23:50;;;;;;;2.58;2.38;;;26.10;99.20;;;;;;12996310;22;20177;-89
2022/06/29 13:28:53;;;;;;;3.15;1.70;;;26.10;99.90;;;;;;13021000;22;20222;-90
2022/06/29 13:33:56;;;;;;;2.58;2.38;;;26.10;97.80;;;;;;12997905;22;20173;-90
2022/06/29 13:38:59;;;;;;;2.85;2.38;;;26.20;99.90;;;;;;13025230;22;20218;-90
2022/06/29 13:44:03;;;;;;;2.15;1.95;;;26.20;98.00;;;;;;12998255;22;20169;-90
2022/06/29 13:49:06;;;;;;;3.10;2.90;;;26.10;99.20;;;;;;13021509;22;20240;-89
2022/06/29 13:54:09;;;;;;;2.50;2.17;;;26.20;99.20;;;;;;12996890;22;20173;-91
2022/06/29 13:59:12;;;;;;;1.75;1.65;;;26.20;99.40;;;;;;13050609;22;20195;-92
2022/06/29 14:04:20;;;;;;;1.92;1.73;;;26.30;99.20;;;;;;12997790;22;20173;-92
2022/06/29 14:09:24;;;;;;;2.63;2.42;;;26.20;97.40;;;;;;13020390;22;20254;-92
2022/06/29 14:14:27;;;;;;;2.60;2.40;;;26.30;96.60;;;;;;12996115;22;20177;-89
2022/06/29 14:19:32;;;;;;;2.60;2.40;;;26.30;99.20;;;;;;13049769;22;20203;-89
2022/06/29 14:24:36;;;;;;;2.40;2.20;;;26.20;99.50;;;;;;12995647;22;20226;-91
2022/06/29 14:29:39;;;;;;;2.78;2.53;;;26.00;99.50;;;;;;13022558;22;20246;-90
2022/06/29 14:34:41;;;;;;;2.83;2.63;;;26.20;99.30;;;;;;12997182;22;20172;-90
2022/06/29 14:39:45;;;;;;;2.78;2.58;;;26.30;99.40;;;;;;12995947;22;20177;-91
2022/06/29 14:44:47;;;;;;;2.53;1.95;;;26.30;99.20;;;;;;12996477;22;20376;-91
2022/06/29 14:49:50;;;;;;;2.22;2.10;;;26.50;96.00;;;;;;12996041;22;20200;-91
2022/06/29 14:54:54;;;;;;;2.67;2.47;;;26.60;99.00;;;;;;13020920;22;20496;-90
2022/06/29 14:59:57;;;;;;;2.85;2.10;;;26.60;99.00;;;;;;13017905;22;20219;-90
2022/06/29 15:05:00;;;;;;;4.63;2.50;;;26.60;98.40;;;;;;13020111;22;20527;-90
2022/06/29 15:10:04;;;;;;;2.88;2.67;;;26.60;98.30;;;;;;13019503;22;20209;-91
2022/06/29 15:15:08;;;;;;;3.83;2.65;;;26.70;98.80;;;;;;12993856;22;20176;-90
2022/06/29 15:20:11;;;;;;;2.28;2.08;;;26.80;98.80;;;;;;12994461;22;20173;-90
2022/06/29 15:25:13;;;;;;;3.45;3.08;;;26.70;98.90;;;;;;13018596;22;20512;-89
2022/06/29 15:30:16;;;;;;;2.58;2.38;;;26.70;98.40;;;;;;13019950;22;20204;-92
2022/06/29 15:40:40;;;;;;;2.60;2.40;;;26.70;98.50;;;;;;13052316;22;20169;-91
2022/06/29 15:45:43;;;;;;;4.15;2.38;;;26.50;99.20;;;;;;13020016;22;20604;-90
2022/06/29 15:50:46;;;;;;;3.60;2.90;;;26.10;99.40;;;;;;13020210;22;20234;-88
2022/06/29 15:55:49;;;;;;;2.75;2.55;;;26.30;99.50;;;;;;13019240;22;20226;-89
2022/06/29 16:00:51;;;;;;;6.15;2.63;;;26.30;99.60;;;;;;12993670;22;20238;-89
2022/06/29 16:05:54;;;;;;;3.35;2.40;;;26.30;99.20;;;;;;12994540;22;20169;-90
2022/06/29 16:10:57;;;;;;;2.97;2.47;;;26.20;99.90;;;;;;13020335;22;20258;-90
2022/06/29 16:16:00;;;;;;;3.47;3.17;;;26.30;99.80;;;;;;13023744;22;20173;-89
2022/06/29 16:21:03;;;;;;;7.63;3.28;;;26.30;99.90;;;;;;13017568;22;20218;-89
2022/06/29 16:26:06;;;;;;;5.38;3.58;;;26.30;99.90;;;;;;12994108;22;20181;-90
2022/06/29 16:31:08;;;;;;;4.28;3.55;;;26.50;99.00;;;;;;12995322;22;20610;-90
2022/06/29 16:36:11;;;;;;;6.75;3.45;;;26.50;99.50;;;;;;12995935;22;20169;-90
2022/06/29 16:41:15;;;;;;;3.25;2.90;;;26.50;99.50;;;;;;13022772;22;20177;-91
2022/06/29 16:46:21;;;;;;;7.95;3.72;;;26.60;98.30;;;;;;13022333;22;20177;-91
2022/06/29 16:51:24;;;;;;;3.90;2.85;;;26.80;99.30;;;;;;13023161;22;20647;-91
2022/06/29 16:56:27;;;;;;;3.50;3.20;;;26.90;99.00;;;;;;12998021;22;20620;-89
2022/06/29 17:01:30;;;;;;;3.20;3.00;;;26.90;98.70;;;;;;13023432;22;20161;-90
2022/06/29 17:06:33;;;;;;;4.93;3.13;;;26.90;98.80;;;;;;12997401;22;20180;-90
2022/06/29 17:11:35;;;;;;;4.45;2.78;;;26.90;97.70;;;;;;13022569;22;20197;-90
2022/06/29 17:16:38;;;;;;;3.33;3.03;;;26.90;98.10;;;;;;12998866;22;20165;-90
2022/06/29 17:21:41;;;;;;;3.78;3.30;;;26.90;98.90;;;;;;13023785;22;20173;-90
2022/06/29 17:26:44;;;;;;;2.80;2.60;;;26.80;98.70;;;;;;12996908;22;20258;-89
2022/06/29 17:31:48;;;;;;;6.25;3.00;;;26.90;98.90;;;;;;13023333;22;20282;-90
2022/06/29 17:36:53;;;;;;;4.55;3.25;;;26.90;98.80;;;;;;13023569;22;20613;-90
2022/06/29 17:41:56;;;;;;;3.15;2.75;;;26.90;98.30;;;;;;13010747;22;20168;-92
2022/06/29 17:46:59;;;;;;;4.82;3.30;;;26.80;99.00;;;;;;13019559;22;20199;-90
2022/06/29 17:52:03;;;;;;;3.05;2.60;;;26.70;99.30;;;;;;13017445;22;20173;-92
2022/06/29 17:57:06;;;;;;;5.75;2.80;;;26.50;99.10;;;;;;12970694;22;20195;-90
2022/06/29 18:02:11;;;;;;;5.00;2.92;;;26.40;99.90;;;;;;13017343;22;20231;-91
2022/06/29 18:07:14;;;;;;;5.00;3.35;;;26.30;99.90;;;;;;13020541;22;20204;-91
2022/06/29 18:12:17;;;;;;;3.35;2.63;;;26.20;99.90;;;;;;12994489;22;20169;-91
2022/06/29 18:17:19;;;;;;;3.30;3.00;;;26.00;99.90;;;;;;12995841;22;20581;-91
2022/06/29 18:22:23;;;;;;;4.82;3.38;;;25.90;99.90;;;;;;12995343;22;20172;-92
2022/06/29 18:27:25;;;;;;;3.70;3.00;;;25.80;99.90;;;;;;13019910;22;20528;-91
2022/06/29 18:32:28;;;;;;;3.45;3.15;;;25.70;99.90;;;;;;12995170;22;20233;-91
2022/06/29 18:37:31;;;;;;;4.35;3.95;;;25.60;99.90;;;;;;12994989;22;20173;-91
2022/06/29 18:42:34;;;;;;;6.15;3.17;;;25.50;99.90;;;;;;13020505;22;20173;-92
2022/06/29 18:47:37;;;;;;;6.35;2.83;;;24.40;99.90;;;;;;12967488;22;20508;-91
2022/06/29 18:52:41;;;;;;;3.55;3.10;;;24.70;99.90;;;;;;12994742;22;20164;-93
2022/06/29 18:57:48;;;;;;;3.30;3.00;;;24.90;99.90;;;;;;13020241;22;20621;-92
2022/06/29 19:02:57;;;;;;;4.00;3.25;;;25.00;99.90;;;;;;13026127;22;20173;-91
2022/06/29 19:08:00;;;;;;;3.10;2.88;;;25.00;99.90;;;;;;13021529;22;20201;-91
2022/06/29 19:13:03;;;;;;;4.10;3.55;;;25.00;99.90;;;;;;12996649;22;20730;-91
2022/06/29 19:18:06;;;;;;;5.93;3.15;;;24.90;99.90;;;;;;13015718;22;20173;-91
2022/06/29 19:23:09;;;;;;;3.60;3.30;;;25.00;99.90;;;;;;13015160;22;20173;-91
2022/06/29 19:28:12;;;;;;;3.72;3.33;;;24.90;99.90;;;;;;12966929;22;20196;-94
2022/06/29 19:33:15;;;;;;;3.47;3.20;;;24.90;99.90;;;;;;13018573;22;20164;-93
2022/06/29 19:38:18;;;;;;;4.20;3.40;;;24.90;99.90;;;;;;13017480;22;20177;-93
2022/06/29 19:43:21;;;;;;;3.83;3.53;;;24.90;99.90;;;;;;13015686;22;20222;-90
2022/06/29 19:48:23;;;;;;;3.92;3.45;;;24.90;99.90;;;;;;13013546;22;20200;-92
2022/06/29 19:53:26;;;;;;;4.10;3.70;;;24.90;99.90;;;;;;13013636;22;20190;-90
2022/06/29 19:58:29;;;;;;;3.20;2.90;;;24.90;99.90;;;;;;13013931;22;20172;-91
2022/06/29 20:03:32;;;;;;;3.53;3.22;;;24.80;99.90;;;;;;12988463;22;20234;-91
2022/06/29 20:08:38;;;;;;;3.17;2.95;;;24.80;99.90;;;;;;13013871;22;20205;-90
2022/06/29 20:13:44;;;;;;;3.00;2.72;;;24.80;99.90;;;;;;12987039;22;20508;-90
2022/06/29 20:18:47;;;;;;;3.55;3.25;;;24.80;99.90;;;;;;13035394;22;20161;-91
2022/06/29 20:23:50;;;;;;;5.65;4.65;;;24.80;99.90;;;;;;13018404;22;20208;-90
2022/06/29 20:28:53;;;;;;;7.25;4.22;;;22.60;99.90;;;;;;13018999;22;20200;-91
2022/06/29 20:33:56;;;;;;;5.25;4.63;;;23.10;99.90;;;;;;13045075;22;20161;-89
2022/06/29 20:38:59;;;;;;;5.40;3.78;;;23.90;99.90;;;;;;13016359;22;20199;-91
2022/06/29 20:49:24;;;;;;;4.80;3.65;;;24.40;99.90;;;;;;13018052;22;20204;-91
2022/06/29 20:54:28;;;;;;;3.80;3.45;;;24.60;99.90;;;;;;12991168;22;20624;-90
2022/06/29 20:59:31;;;;;;;3.67;3.30;;;24.60;99.90;;;;;;13046337;22;20227;-90
2022/06/29 21:04:33;;;;;;;3.97;3.58;;;24.70;99.90;;;;;;13017945;22;20161;-90
2022/06/29 21:09:37;;;;;;;3.88;3.58;;;24.70;99.90;;;;;;13044490;22;20197;-90
2022/06/29 21:14:39;;;;;;;3.78;3.47;;;24.70;99.90;;;;;;13016477;22;20169;-90
2022/06/29 21:19:42;;;;;;;4.15;3.75;;;24.70;99.90;;;;;;13017109;22;20165;-91
2022/06/29 21:24:45;;;;;;;4.10;3.80;;;24.70;99.90;;;;;;13020931;22;20636;-90
2022/06/29 21:29:49;;;;;;;3.53;3.22;;;24.70;99.90;;;;;;13022548;22;20189;-90
2022/06/29 21:34:52;;;;;;;4.97;3.72;;;24.70;99.90;;;;;;13048950;22;20169;-90
2022/06/29 21:39:54;;;;;;;4.43;3.40;;;24.70;99.90;;;;;;13048594;22;20165;-90
2022/06/29 21:44:57;;;;;;;3.83;3.45;;;24.70;99.90;;;;;;12996399;22;20173;-91
2022/06/29 21:55:21;;;;;;;3.47;3.10;;;24.60;99.90;;;;;;13020683;22;20176;-91
2022/06/29 22:00:26;;;;;;;3.78;2.97;;;24.60;99.90;;;;;;13020867;22;20620;-92
2022/06/29 22:05:29;;;;;;;3.80;3.17;;;24.60;99.90;;;;;;13049118;22;20165;-91
2022/06/29 22:10:32;;;;;;;3.42;3.17;;;24.60;99.90;;;;;;13020317;22;20212;-90
2022/06/29 22:15:35;;;;;;;3.47;3.20;;;24.50;99.90;;;;;;13067354;22;20165;-90
2022/06/29 22:20:37;;;;;;;3.33;3.03;;;24.60;99.90;;;;;;12995819;22;20624;-90
2022/06/29 22:25:42;;;;;;;3.03;2.83;;;24.60;99.90;;;;;;12995664;22;20173;-91
2022/06/29 22:30:45;;;;;;;3.90;3.50;;;24.60;99.90;;;;;;13021175;22;20193;-91
2022/06/29 22:35:48;;;;;;;3.47;3.22;;;24.50;99.90;;;;;;13021392;22;20662;-91
2022/06/29 22:40:51;;;;;;;3.50;3.20;;;24.50;99.90;;;;;;12995068;22;20231;-91
2022/06/29 22:45:53;;;;;;;3.85;3.45;;;24.50;99.90;;;;;;12995820;22;20169;-91
2022/06/29 22:50:56;;;;;;;3.45;3.08;;;24.50;99.90;;;;;;13020133;22;20239;-92
2022/06/29 22:55:59;;;;;;;3.13;2.90;;;24.50;99.90;;;;;;13019133;22;20231;-91
2022/06/29 23:01:01;;;;;;;3.45;3.15;;;24.50;99.90;;;;;;13021499;22;20369;-90
2022/06/29 23:06:04;;;;;;;3.67;3.38;;;24.50;99.90;;;;;;12994806;22;20173;-90
2022/06/29 23:16:28;;;;;;;4.13;3.80;;;24.40;99.90;;;;;;13063986;22;20593;-90
2022/06/29 23:21:30;;;;;;;3.25;3.00;;;24.40;99.90;;;;;;13047185;22;20169;-91
2022/06/29 23:26:34;;;;;;;3.33;3.03;;;24.50;99.90;;;;;;13018685;22;20176;-90
2022/06/29 23:31:36;;;;;;;3.75;3.45;;;24.40;99.90;;;;;;13019796;22;20566;-91
2022/06/29 23:36:39;;;;;;;3.53;3.13;;;24.50;99.90;;;;;;13047116;22;20161;-91
2022/06/29 23:41:41;;;;;;;3.65;3.35;;;24.50;99.90;;;;;;13045780;22;20169;-91
2022/06/29 23:46:44;;;;;;;3.65;3.35;;;24.40;99.90;;;;;;13019510;22;20199;-91
2022/06/29 23:51:47;;;;;;;3.35;3.08;;;24.40;99.90;;;;;;12993436;22;20201;-90
2022/06/29 23:56:50;;;;;;;3.97;3.67;;;24.50;99.90;;;;;;13024651;22;20681;-91
